sensor_id;sensor_type;location;lat;lon;timestamp;temperature;humidity
17208;DHT22;8720;48.488;9.202;2022-09-09T00:02:27;18.20;48.70
17208;DHT22;8720;48.488;9.202;2022-09-09T00:05:00;18.10;48.90
17208;DHT22;8720;48.488;9.202;2022-09-09T00:07:43;18.10;49.30
17208;DHT22;8720;48.488;9.202;2022-09-09T00:10:19;18.00;49.40
17208;DHT22;8720;48.488;9.202;2022-09-09T00:12:59;17.90;49.70
17208;DHT22;8720;48.488;9.202;2022-09-09T00:15:37;17.80;49.70
17208;DHT22;8720;48.488;9.202;2022-09-09T00:18:17;17.80;50.00
17208;DHT22;8720;48.488;9.202;2022-09-09T00:20:57;17.70;50.10
17208;DHT22;8720;48.488;9.202;2022-09-09T00:23:32;17.70;50.00
17208;DHT22;8720;48.488;9.202;2022-09-09T00:26:08;17.60;50.00
17208;DHT22;8720;48.488;9.202;2022-09-09T00:28:48;17.60;50.20
17208;DHT22;8720;48.488;9.202;2022-09-09T00:31:25;17.50;50.40
17208;DHT22;8720;48.488;9.202;2022-09-09T00:33:58;17.50;50.50
17208;DHT22;8720;48.488;9.202;2022-09-09T00:36:35;17.40;50.70
17208;DHT22;8720;48.488;9.202;2022-09-09T00:39:04;17.40;51.00
17208;DHT22;8720;48.488;9.202;2022-09-09T00:41:50;17.40;51.00
17208;DHT22;8720;48.488;9.202;2022-09-09T00:44:31;17.40;51.20
17208;DHT22;8720;48.488;9.202;2022-09-09T00:47:18;17.40;51.20
17208;DHT22;8720;48.488;9.202;2022-09-09T00:50:14;17.30;51.20
17208;DHT22;8720;48.488;9.202;2022-09-09T00:53:01;17.30;51.00
17208;DHT22;8720;48.488;9.202;2022-09-09T00:55:44;17.30;51.00
17208;DHT22;8720;48.488;9.202;2022-09-09T00:58:15;17.30;51.00
17208;DHT22;8720;48.488;9.202;2022-09-09T01:00:44;17.30;50.90
17208;DHT22;8720;48.488;9.202;2022-09-09T01:03:22;17.20;51.10
17208;DHT22;8720;48.488;9.202;2022-09-09T01:06:02;17.20;51.40
17208;DHT22;8720;48.488;9.202;2022-09-09T01:09:02;17.20;51.30
17208;DHT22;8720;48.488;9.202;2022-09-09T01:11:49;17.20;51.80
17208;DHT22;8720;48.488;9.202;2022-09-09T01:14:31;17.20;51.50
17208;DHT22;8720;48.488;9.202;2022-09-09T01:17:12;17.10;51.50
17208;DHT22;8720;48.488;9.202;2022-09-09T01:19:59;17.00;51.30
17208;DHT22;8720;48.488;9.202;2022-09-09T01:22:47;17.00;51.40
17208;DHT22;8720;48.488;9.202;2022-09-09T01:28:52;17.00;51.80
17208;DHT22;8720;48.488;9.202;2022-09-09T01:31:31;16.90;51.40
17208;DHT22;8720;48.488;9.202;2022-09-09T01:34:09;16.90;51.40
17208;DHT22;8720;48.488;9.202;2022-09-09T01:36:42;16.90;51.70
17208;DHT22;8720;48.488;9.202;2022-09-09T01:39:16;16.90;51.70
17208;DHT22;8720;48.488;9.202;2022-09-09T01:41:45;16.80;51.50
17208;DHT22;8720;48.488;9.202;2022-09-09T01:44:18;16.80;51.50
17208;DHT22;8720;48.488;9.202;2022-09-09T01:46:46;16.80;51.60
17208;DHT22;8720;48.488;9.202;2022-09-09T01:49:19;16.70;51.50
17208;DHT22;8720;48.488;9.202;2022-09-09T01:51:50;16.70;51.50
17208;DHT22;8720;48.488;9.202;2022-09-09T01:54:30;16.70;51.80
17208;DHT22;8720;48.488;9.202;2022-09-09T01:57:08;16.70;52.00
17208;DHT22;8720;48.488;9.202;2022-09-09T01:59:56;16.70;52.00
17208;DHT22;8720;48.488;9.202;2022-09-09T02:05:35;16.60;51.90
17208;DHT22;8720;48.488;9.202;2022-09-09T02:08:17;16.60;52.20
17208;DHT22;8720;48.488;9.202;2022-09-09T02:11:02;16.50;52.20
17208;DHT22;8720;48.488;9.202;2022-09-09T02:13:43;16.50;52.30
17208;DHT22;8720;48.488;9.202;2022-09-09T02:16:20;16.50;52.30
17208;DHT22;8720;48.488;9.202;2022-09-09T02:18:52;16.50;52.60
17208;DHT22;8720;48.488;9.202;2022-09-09T02:21:34;16.40;52.60
17208;DHT22;8720;48.488;9.202;2022-09-09T02:24:05;16.40;52.70
17208;DHT22;8720;48.488;9.202;2022-09-09T02:26:43;16.40;53.00
17208;DHT22;8720;48.488;9.202;2022-09-09T02:29:21;16.40;53.00
17208;DHT22;8720;48.488;9.202;2022-09-09T02:31:55;16.40;53.90
17208;DHT22;8720;48.488;9.202;2022-09-09T02:34:36;16.40;53.40
17208;DHT22;8720;48.488;9.202;2022-09-09T02:37:08;16.40;54.30
17208;DHT22;8720;48.488;9.202;2022-09-09T02:39:40;16.40;53.60
17208;DHT22;8720;48.488;9.202;2022-09-09T02:42:12;16.40;53.60
17208;DHT22;8720;48.488;9.202;2022-09-09T02:44:41;16.40;53.70
17208;DHT22;8720;48.488;9.202;2022-09-09T02:47:30;16.40;53.70
17208;DHT22;8720;48.488;9.202;2022-09-09T02:50:12;16.40;54.00
17208;DHT22;8720;48.488;9.202;2022-09-09T02:52:59;16.50;53.90
17208;DHT22;8720;48.488;9.202;2022-09-09T02:55:39;16.50;53.90
17208;DHT22;8720;48.488;9.202;2022-09-09T02:58:13;16.50;53.70
17208;DHT22;8720;48.488;9.202;2022-09-09T03:00:49;16.60;53.80
17208;DHT22;8720;48.488;9.202;2022-09-09T03:03:20;16.60;53.80
17208;DHT22;8720;48.488;9.202;2022-09-09T03:05:50;16.60;53.80
17208;DHT22;8720;48.488;9.202;2022-09-09T03:08:17;16.70;53.70
17208;DHT22;8720;48.488;9.202;2022-09-09T03:10:45;16.70;53.60
17208;DHT22;8720;48.488;9.202;2022-09-09T03:13:14;16.70;53.60
17208;DHT22;8720;48.488;9.202;2022-09-09T03:15:42;16.80;53.60
17208;DHT22;8720;48.488;9.202;2022-09-09T03:18:14;16.80;53.90
17208;DHT22;8720;48.488;9.202;2022-09-09T03:20:43;16.90;53.90
17208;DHT22;8720;48.488;9.202;2022-09-09T03:23:11;16.90;54.10
17208;DHT22;8720;48.488;9.202;2022-09-09T03:25:46;16.90;54.20
17208;DHT22;8720;48.488;9.202;2022-09-09T03:28:15;17.00;54.60
17208;DHT22;8720;48.488;9.202;2022-09-09T03:30:43;17.00;54.60
17208;DHT22;8720;48.488;9.202;2022-09-09T03:33:10;17.00;54.70
17208;DHT22;8720;48.488;9.202;2022-09-09T03:35:38;17.00;54.90
17208;DHT22;8720;48.488;9.202;2022-09-09T03:38:08;17.10;55.10
17208;DHT22;8720;48.488;9.202;2022-09-09T03:40:36;17.10;55.50
17208;DHT22;8720;48.488;9.202;2022-09-09T03:43:03;17.10;55.30
17208;DHT22;8720;48.488;9.202;2022-09-09T03:45:30;17.10;55.50
17208;DHT22;8720;48.488;9.202;2022-09-09T03:47:58;17.10;55.70
17208;DHT22;8720;48.488;9.202;2022-09-09T03:50:26;17.10;55.80
17208;DHT22;8720;48.488;9.202;2022-09-09T03:52:55;17.10;55.80
17208;DHT22;8720;48.488;9.202;2022-09-09T03:55:23;17.10;55.90
17208;DHT22;8720;48.488;9.202;2022-09-09T03:57:51;17.10;56.00
17208;DHT22;8720;48.488;9.202;2022-09-09T04:00:19;17.10;56.00
17208;DHT22;8720;48.488;9.202;2022-09-09T04:02:51;17.10;56.00
17208;DHT22;8720;48.488;9.202;2022-09-09T04:05:19;17.10;56.00
17208;DHT22;8720;48.488;9.202;2022-09-09T04:07:47;17.10;56.20
17208;DHT22;8720;48.488;9.202;2022-09-09T04:10:17;17.10;56.90
17208;DHT22;8720;48.488;9.202;2022-09-09T04:12:46;17.10;56.40
17208;DHT22;8720;48.488;9.202;2022-09-09T04:15:13;17.10;56.60
17208;DHT22;8720;48.488;9.202;2022-09-09T04:17:43;17.20;56.70
17208;DHT22;8720;48.488;9.202;2022-09-09T04:20:13;17.20;56.90
17208;DHT22;8720;48.488;9.202;2022-09-09T04:22:41;17.20;56.90
17208;DHT22;8720;48.488;9.202;2022-09-09T04:25:08;17.20;56.80
17208;DHT22;8720;48.488;9.202;2022-09-09T04:27:36;17.20;56.70
17208;DHT22;8720;48.488;9.202;2022-09-09T04:30:06;17.20;56.80
17208;DHT22;8720;48.488;9.202;2022-09-09T04:32:34;17.20;57.00
17208;DHT22;8720;48.488;9.202;2022-09-09T04:35:03;17.20;56.90
17208;DHT22;8720;48.488;9.202;2022-09-09T04:37:31;17.20;57.00
17208;DHT22;8720;48.488;9.202;2022-09-09T04:39:58;17.20;56.80
17208;DHT22;8720;48.488;9.202;2022-09-09T04:42:29;17.20;56.80
17208;DHT22;8720;48.488;9.202;2022-09-09T04:44:56;17.20;56.80
17208;DHT22;8720;48.488;9.202;2022-09-09T04:47:25;17.20;56.80
17208;DHT22;8720;48.488;9.202;2022-09-09T04:49:53;17.10;56.90
17208;DHT22;8720;48.488;9.202;2022-09-09T04:52:20;17.20;57.00
17208;DHT22;8720;48.488;9.202;2022-09-09T04:54:47;17.20;57.10
17208;DHT22;8720;48.488;9.202;2022-09-09T04:57:15;17.10;57.20
17208;DHT22;8720;48.488;9.202;2022-09-09T04:59:42;17.10;57.30
17208;DHT22;8720;48.488;9.202;2022-09-09T05:02:10;17.10;57.20
17208;DHT22;8720;48.488;9.202;2022-09-09T05:04:38;17.10;57.10
17208;DHT22;8720;48.488;9.202;2022-09-09T05:07:06;17.10;57.30
17208;DHT22;8720;48.488;9.202;2022-09-09T05:09:34;17.10;57.20
17208;DHT22;8720;48.488;9.202;2022-09-09T05:12:01;17.10;57.10
17208;DHT22;8720;48.488;9.202;2022-09-09T05:14:34;17.10;57.10
17208;DHT22;8720;48.488;9.202;2022-09-09T05:17:02;17.10;57.30
17208;DHT22;8720;48.488;9.202;2022-09-09T05:19:29;17.10;57.50
17208;DHT22;8720;48.488;9.202;2022-09-09T05:21:58;17.10;57.50
17208;DHT22;8720;48.488;9.202;2022-09-09T05:24:34;17.10;57.50
17208;DHT22;8720;48.488;9.202;2022-09-09T05:27:03;17.20;57.60
17208;DHT22;8720;48.488;9.202;2022-09-09T05:29:32;17.20;57.60
17208;DHT22;8720;48.488;9.202;2022-09-09T05:32:01;17.30;57.60
17208;DHT22;8720;48.488;9.202;2022-09-09T05:34:33;17.30;57.60
17208;DHT22;8720;48.488;9.202;2022-09-09T05:37:01;17.30;57.60
17208;DHT22;8720;48.488;9.202;2022-09-09T05:39:31;17.40;57.70
17208;DHT22;8720;48.488;9.202;2022-09-09T05:41:58;17.40;57.70
17208;DHT22;8720;48.488;9.202;2022-09-09T05:44:27;17.50;57.80
17208;DHT22;8720;48.488;9.202;2022-09-09T05:46:55;17.50;57.80
17208;DHT22;8720;48.488;9.202;2022-09-09T05:49:23;17.60;58.00
17208;DHT22;8720;48.488;9.202;2022-09-09T05:51:50;17.60;58.20
17208;DHT22;8720;48.488;9.202;2022-09-09T05:54:21;17.70;57.90
17208;DHT22;8720;48.488;9.202;2022-09-09T05:56:51;17.70;57.80
17208;DHT22;8720;48.488;9.202;2022-09-09T05:59:19;17.80;57.70
17208;DHT22;8720;48.488;9.202;2022-09-09T06:01:50;17.80;57.60
17208;DHT22;8720;48.488;9.202;2022-09-09T06:04:25;17.90;57.80
17208;DHT22;8720;48.488;9.202;2022-09-09T06:06:53;18.00;57.70
17208;DHT22;8720;48.488;9.202;2022-09-09T06:09:23;18.00;57.50
17208;DHT22;8720;48.488;9.202;2022-09-09T06:11:50;18.10;57.60
17208;DHT22;8720;48.488;9.202;2022-09-09T06:14:19;18.10;57.60
17208;DHT22;8720;48.488;9.202;2022-09-09T06:16:49;18.20;57.60
17208;DHT22;8720;48.488;9.202;2022-09-09T06:19:22;18.30;57.80
17208;DHT22;8720;48.488;9.202;2022-09-09T06:21:55;18.30;57.60
17208;DHT22;8720;48.488;9.202;2022-09-09T06:24:24;18.40;57.70
17208;DHT22;8720;48.488;9.202;2022-09-09T06:26:51;18.50;57.60
17208;DHT22;8720;48.488;9.202;2022-09-09T06:29:23;18.60;57.70
17208;DHT22;8720;48.488;9.202;2022-09-09T06:31:52;18.70;58.00
17208;DHT22;8720;48.488;9.202;2022-09-09T06:34:21;18.90;58.00
17208;DHT22;8720;48.488;9.202;2022-09-09T06:36:58;19.00;57.70
17208;DHT22;8720;48.488;9.202;2022-09-09T06:39:31;19.20;57.70
17208;DHT22;8720;48.488;9.202;2022-09-09T06:42:00;19.40;57.50
17208;DHT22;8720;48.488;9.202;2022-09-09T06:44:46;19.50;57.50
17208;DHT22;8720;48.488;9.202;2022-09-09T06:47:32;19.80;58.00
17208;DHT22;8720;48.488;9.202;2022-09-09T06:50:08;20.20;58.20
17208;DHT22;8720;48.488;9.202;2022-09-09T06:52:38;20.70;57.50
17208;DHT22;8720;48.488;9.202;2022-09-09T06:55:09;21.20;57.20
17208;DHT22;8720;48.488;9.202;2022-09-09T06:57:37;21.60;55.80
17208;DHT22;8720;48.488;9.202;2022-09-09T07:00:11;22.00;55.30
17208;DHT22;8720;48.488;9.202;2022-09-09T07:02:39;22.30;54.40
17208;DHT22;8720;48.488;9.202;2022-09-09T07:05:08;22.50;53.80
17208;DHT22;8720;48.488;9.202;2022-09-09T07:07:37;22.60;53.10
17208;DHT22;8720;48.488;9.202;2022-09-09T07:10:06;22.70;52.80
17208;DHT22;8720;48.488;9.202;2022-09-09T07:12:37;22.70;52.40
17208;DHT22;8720;48.488;9.202;2022-09-09T07:15:09;22.80;52.20
17208;DHT22;8720;48.488;9.202;2022-09-09T07:17:40;22.80;52.10
17208;DHT22;8720;48.488;9.202;2022-09-09T07:20:08;22.80;52.00
17208;DHT22;8720;48.488;9.202;2022-09-09T07:22:35;22.90;51.70
17208;DHT22;8720;48.488;9.202;2022-09-09T07:25:03;22.90;51.70
17208;DHT22;8720;48.488;9.202;2022-09-09T07:27:31;23.00;51.60
17208;DHT22;8720;48.488;9.202;2022-09-09T07:30:00;23.10;51.40
17208;DHT22;8720;48.488;9.202;2022-09-09T07:32:31;23.20;51.10
17208;DHT22;8720;48.488;9.202;2022-09-09T07:34:59;23.40;51.20
17208;DHT22;8720;48.488;9.202;2022-09-09T07:37:27;23.50;51.40
17208;DHT22;8720;48.488;9.202;2022-09-09T07:39:54;23.70;51.40
17208;DHT22;8720;48.488;9.202;2022-09-09T07:42:22;23.80;51.00
17208;DHT22;8720;48.488;9.202;2022-09-09T07:44:49;24.00;51.00
17208;DHT22;8720;48.488;9.202;2022-09-09T07:47:22;24.10;51.30
17208;DHT22;8720;48.488;9.202;2022-09-09T07:49:50;24.40;50.60
17208;DHT22;8720;48.488;9.202;2022-09-09T07:52:25;24.60;50.50
17208;DHT22;8720;48.488;9.202;2022-09-09T07:54:57;24.80;50.00
17208;DHT22;8720;48.488;9.202;2022-09-09T07:57:25;24.90;49.60
17208;DHT22;8720;48.488;9.202;2022-09-09T07:59:54;24.90;49.30
17208;DHT22;8720;48.488;9.202;2022-09-09T08:02:25;25.00;49.30
17208;DHT22;8720;48.488;9.202;2022-09-09T08:04:55;25.10;48.80
17208;DHT22;8720;48.488;9.202;2022-09-09T08:07:23;25.10;48.90
17208;DHT22;8720;48.488;9.202;2022-09-09T08:09:53;25.10;48.40
17208;DHT22;8720;48.488;9.202;2022-09-09T08:12:26;25.10;48.30
17208;DHT22;8720;48.488;9.202;2022-09-09T08:14:53;25.10;48.00
17208;DHT22;8720;48.488;9.202;2022-09-09T08:17:21;25.10;48.00
17208;DHT22;8720;48.488;9.202;2022-09-09T08:19:51;25.00;47.80
17208;DHT22;8720;48.488;9.202;2022-09-09T08:22:23;24.90;47.50
17208;DHT22;8720;48.488;9.202;2022-09-09T08:24:50;24.90;48.00
17208;DHT22;8720;48.488;9.202;2022-09-09T08:27:18;24.80;47.90
17208;DHT22;8720;48.488;9.202;2022-09-09T08:29:45;24.80;47.50
17208;DHT22;8720;48.488;9.202;2022-09-09T08:32:13;24.70;47.30
17208;DHT22;8720;48.488;9.202;2022-09-09T08:34:44;24.70;47.00
17208;DHT22;8720;48.488;9.202;2022-09-09T08:37:16;24.50;46.80
17208;DHT22;8720;48.488;9.202;2022-09-09T08:39:45;24.50;47.10
17208;DHT22;8720;48.488;9.202;2022-09-09T08:42:32;24.40;47.20
17208;DHT22;8720;48.488;9.202;2022-09-09T08:45:18;24.30;47.00
17208;DHT22;8720;48.488;9.202;2022-09-09T08:48:03;24.20;46.40
17208;DHT22;8720;48.488;9.202;2022-09-09T08:50:39;24.20;46.50
17208;DHT22;8720;48.488;9.202;2022-09-09T08:53:18;24.20;46.70
17208;DHT22;8720;48.488;9.202;2022-09-09T08:55:55;24.10;46.20
17208;DHT22;8720;48.488;9.202;2022-09-09T08:58:43;24.10;46.90
17208;DHT22;8720;48.488;9.202;2022-09-09T09:01:29;24.10;45.90
17208;DHT22;8720;48.488;9.202;2022-09-09T09:07:25;24.00;45.80
17208;DHT22;8720;48.488;9.202;2022-09-09T09:10:12;24.00;45.80
17208;DHT22;8720;48.488;9.202;2022-09-09T09:12:54;24.00;45.60
17208;DHT22;8720;48.488;9.202;2022-09-09T09:15:25;24.00;46.80
17208;DHT22;8720;48.488;9.202;2022-09-09T09:17:55;24.10;46.00
17208;DHT22;8720;48.488;9.202;2022-09-09T09:20:28;24.10;46.10
17208;DHT22;8720;48.488;9.202;2022-09-09T09:23:15;24.20;45.80
17208;DHT22;8720;48.488;9.202;2022-09-09T09:25:51;24.30;45.90
17208;DHT22;8720;48.488;9.202;2022-09-09T09:28:25;24.30;45.70
17208;DHT22;8720;48.488;9.202;2022-09-09T09:31:04;24.40;45.70
17208;DHT22;8720;48.488;9.202;2022-09-09T09:33:43;24.40;45.50
17208;DHT22;8720;48.488;9.202;2022-09-09T09:36:16;24.50;45.30
17208;DHT22;8720;48.488;9.202;2022-09-09T09:38:55;24.60;45.50
17208;DHT22;8720;48.488;9.202;2022-09-09T09:41:34;24.60;45.10
17208;DHT22;8720;48.488;9.202;2022-09-09T09:44:06;24.70;44.20
17208;DHT22;8720;48.488;9.202;2022-09-09T09:46:48;24.70;44.60
17208;DHT22;8720;48.488;9.202;2022-09-09T09:49:16;24.70;45.00
17208;DHT22;8720;48.488;9.202;2022-09-09T09:51:44;24.60;45.20
17208;DHT22;8720;48.488;9.202;2022-09-09T09:54:22;24.70;44.20
17208;DHT22;8720;48.488;9.202;2022-09-09T09:57:09;24.70;43.70
17208;DHT22;8720;48.488;9.202;2022-09-09T09:59:40;24.70;43.00
17208;DHT22;8720;48.488;9.202;2022-09-09T10:02:19;24.70;43.40
17208;DHT22;8720;48.488;9.202;2022-09-09T10:05:03;24.70;43.30
17208;DHT22;8720;48.488;9.202;2022-09-09T10:07:36;24.70;43.00
17208;DHT22;8720;48.488;9.202;2022-09-09T10:10:05;24.70;43.40
17208;DHT22;8720;48.488;9.202;2022-09-09T10:12:49;24.60;43.30
17208;DHT22;8720;48.488;9.202;2022-09-09T10:15:31;24.60;43.00
17208;DHT22;8720;48.488;9.202;2022-09-09T10:18:19;24.70;43.50
17208;DHT22;8720;48.488;9.202;2022-09-09T10:21:03;24.80;43.20
17208;DHT22;8720;48.488;9.202;2022-09-09T10:23:56;24.80;43.40
17208;DHT22;8720;48.488;9.202;2022-09-09T10:26:39;24.90;42.80
17208;DHT22;8720;48.488;9.202;2022-09-09T10:29:30;24.90;42.80
17208;DHT22;8720;48.488;9.202;2022-09-09T10:32:25;25.00;42.90
17208;DHT22;8720;48.488;9.202;2022-09-09T10:35:10;25.00;42.50
17208;DHT22;8720;48.488;9.202;2022-09-09T10:40:43;25.10;42.00
17208;DHT22;8720;48.488;9.202;2022-09-09T10:46:49;25.20;39.60
17208;DHT22;8720;48.488;9.202;2022-09-09T10:49:49;25.10;39.30
17208;DHT22;8720;48.488;9.202;2022-09-09T10:52:33;25.10;39.20
17208;DHT22;8720;48.488;9.202;2022-09-09T10:55:11;25.10;40.10
17208;DHT22;8720;48.488;9.202;2022-09-09T10:57:45;25.10;40.30
17208;DHT22;8720;48.488;9.202;2022-09-09T11:00:18;25.00;40.00
17208;DHT22;8720;48.488;9.202;2022-09-09T11:02:54;25.00;39.80
17208;DHT22;8720;48.488;9.202;2022-09-09T11:05:30;25.00;39.50
17208;DHT22;8720;48.488;9.202;2022-09-09T11:08:05;25.00;39.70
17208;DHT22;8720;48.488;9.202;2022-09-09T11:10:40;25.00;39.80
17208;DHT22;8720;48.488;9.202;2022-09-09T11:13:17;25.00;39.60
17208;DHT22;8720;48.488;9.202;2022-09-09T11:15:50;25.00;39.70
17208;DHT22;8720;48.488;9.202;2022-09-09T11:18:24;25.00;39.90
17208;DHT22;8720;48.488;9.202;2022-09-09T11:20:55;24.90;39.80
17208;DHT22;8720;48.488;9.202;2022-09-09T11:23:29;24.90;39.70
17208;DHT22;8720;48.488;9.202;2022-09-09T11:26:07;25.00;39.70
17208;DHT22;8720;48.488;9.202;2022-09-09T11:28:54;25.00;39.50
17208;DHT22;8720;48.488;9.202;2022-09-09T11:31:44;25.00;39.10
17208;DHT22;8720;48.488;9.202;2022-09-09T11:34:30;25.00;39.20
17208;DHT22;8720;48.488;9.202;2022-09-09T11:37:31;25.00;39.10
17208;DHT22;8720;48.488;9.202;2022-09-09T11:40:18;25.00;39.50
17208;DHT22;8720;48.488;9.202;2022-09-09T11:42:48;24.90;39.60
17208;DHT22;8720;48.488;9.202;2022-09-09T11:45:27;24.70;39.90
17208;DHT22;8720;48.488;9.202;2022-09-09T11:47:57;24.60;40.60
17208;DHT22;8720;48.488;9.202;2022-09-09T11:50:33;24.50;40.10
17208;DHT22;8720;48.488;9.202;2022-09-09T11:53:20;24.40;40.10
17208;DHT22;8720;48.488;9.202;2022-09-09T11:56:10;24.30;40.10
17208;DHT22;8720;48.488;9.202;2022-09-09T11:58:44;24.20;40.30
17208;DHT22;8720;48.488;9.202;2022-09-09T12:01:34;24.20;40.00
17208;DHT22;8720;48.488;9.202;2022-09-09T12:04:12;24.10;39.60
17208;DHT22;8720;48.488;9.202;2022-09-09T12:06:53;24.10;39.00
17208;DHT22;8720;48.488;9.202;2022-09-09T12:09:32;24.00;39.40
17208;DHT22;8720;48.488;9.202;2022-09-09T12:12:28;24.00;39.60
17208;DHT22;8720;48.488;9.202;2022-09-09T12:15:00;24.00;39.40
17208;DHT22;8720;48.488;9.202;2022-09-09T12:17:48;24.10;39.50
17208;DHT22;8720;48.488;9.202;2022-09-09T12:20:19;24.10;39.60
17208;DHT22;8720;48.488;9.202;2022-09-09T12:26:07;24.30;38.70
17208;DHT22;8720;48.488;9.202;2022-09-09T12:28:55;24.30;38.20
17208;DHT22;8720;48.488;9.202;2022-09-09T12:31:35;24.30;38.30
17208;DHT22;8720;48.488;9.202;2022-09-09T12:34:14;24.30;38.70
17208;DHT22;8720;48.488;9.202;2022-09-09T12:36:47;24.20;38.60
17208;DHT22;8720;48.488;9.202;2022-09-09T12:39:28;24.20;38.50
17208;DHT22;8720;48.488;9.202;2022-09-09T12:42:00;24.20;38.90
17208;DHT22;8720;48.488;9.202;2022-09-09T12:44:30;24.20;39.20
17208;DHT22;8720;48.488;9.202;2022-09-09T12:47:00;24.20;39.30
17208;DHT22;8720;48.488;9.202;2022-09-09T12:49:31;24.20;39.30
17208;DHT22;8720;48.488;9.202;2022-09-09T12:52:06;24.20;40.10
17208;DHT22;8720;48.488;9.202;2022-09-09T12:54:37;24.20;39.70
17208;DHT22;8720;48.488;9.202;2022-09-09T12:57:05;24.30;39.70
17208;DHT22;8720;48.488;9.202;2022-09-09T12:59:39;24.30;39.90
17208;DHT22;8720;48.488;9.202;2022-09-09T13:02:18;24.30;40.10
17208;DHT22;8720;48.488;9.202;2022-09-09T13:04:47;24.30;39.90
17208;DHT22;8720;48.488;9.202;2022-09-09T13:07:16;24.30;40.10
17208;DHT22;8720;48.488;9.202;2022-09-09T13:09:46;24.30;40.20
17208;DHT22;8720;48.488;9.202;2022-09-09T13:12:17;24.40;39.40
17208;DHT22;8720;48.488;9.202;2022-09-09T13:14:53;24.40;38.80
17208;DHT22;8720;48.488;9.202;2022-09-09T13:17:24;24.50;38.60
17208;DHT22;8720;48.488;9.202;2022-09-09T13:19:57;24.50;38.70
17208;DHT22;8720;48.488;9.202;2022-09-09T13:22:29;24.50;38.50
17208;DHT22;8720;48.488;9.202;2022-09-09T13:25:01;24.50;38.30
17208;DHT22;8720;48.488;9.202;2022-09-09T13:27:32;24.60;38.30
17208;DHT22;8720;48.488;9.202;2022-09-09T13:30:19;24.60;38.30
17208;DHT22;8720;48.488;9.202;2022-09-09T13:33:00;24.50;38.20
17208;DHT22;8720;48.488;9.202;2022-09-09T13:35:29;24.50;39.40
17208;DHT22;8720;48.488;9.202;2022-09-09T13:37:57;24.50;38.90
17208;DHT22;8720;48.488;9.202;2022-09-09T13:40:28;24.50;38.90
17208;DHT22;8720;48.488;9.202;2022-09-09T13:42:56;24.50;38.70
17208;DHT22;8720;48.488;9.202;2022-09-09T13:45:26;24.60;38.70
17208;DHT22;8720;48.488;9.202;2022-09-09T13:47:54;24.60;38.40
17208;DHT22;8720;48.488;9.202;2022-09-09T13:50:24;24.70;38.30
17208;DHT22;8720;48.488;9.202;2022-09-09T13:52:54;24.70;38.20
17208;DHT22;8720;48.488;9.202;2022-09-09T13:55:25;24.70;38.20
17208;DHT22;8720;48.488;9.202;2022-09-09T13:57:57;24.60;38.20
17208;DHT22;8720;48.488;9.202;2022-09-09T14:00:27;24.60;38.70
17208;DHT22;8720;48.488;9.202;2022-09-09T14:02:57;24.60;38.60
17208;DHT22;8720;48.488;9.202;2022-09-09T14:05:25;24.60;38.10
17208;DHT22;8720;48.488;9.202;2022-09-09T14:07:53;24.60;37.80
17208;DHT22;8720;48.488;9.202;2022-09-09T14:10:20;24.60;38.00
17208;DHT22;8720;48.488;9.202;2022-09-09T14:12:49;24.60;37.80
17208;DHT22;8720;48.488;9.202;2022-09-09T14:15:16;24.60;38.20
17208;DHT22;8720;48.488;9.202;2022-09-09T14:17:44;24.50;37.70
17208;DHT22;8720;48.488;9.202;2022-09-09T14:20:11;24.60;37.80
17208;DHT22;8720;48.488;9.202;2022-09-09T14:22:40;24.50;37.60
17208;DHT22;8720;48.488;9.202;2022-09-09T14:25:09;24.60;37.60
17208;DHT22;8720;48.488;9.202;2022-09-09T14:27:36;24.60;37.30
17208;DHT22;8720;48.488;9.202;2022-09-09T14:30:07;24.60;37.30
17208;DHT22;8720;48.488;9.202;2022-09-09T14:32:35;24.50;37.20
17208;DHT22;8720;48.488;9.202;2022-09-09T14:35:03;24.60;37.50
17208;DHT22;8720;48.488;9.202;2022-09-09T14:37:31;24.50;37.50
17208;DHT22;8720;48.488;9.202;2022-09-09T14:39:58;24.60;37.50
17208;DHT22;8720;48.488;9.202;2022-09-09T14:42:25;24.50;37.60
17208;DHT22;8720;48.488;9.202;2022-09-09T14:44:55;24.50;37.70
17208;DHT22;8720;48.488;9.202;2022-09-09T14:47:23;24.50;38.00
17208;DHT22;8720;48.488;9.202;2022-09-09T14:49:51;24.50;37.70
17208;DHT22;8720;48.488;9.202;2022-09-09T14:52:19;24.50;37.60
17208;DHT22;8720;48.488;9.202;2022-09-09T14:54:46;24.50;37.60
17208;DHT22;8720;48.488;9.202;2022-09-09T14:57:15;24.50;37.80
17208;DHT22;8720;48.488;9.202;2022-09-09T14:59:42;24.50;37.10
17208;DHT22;8720;48.488;9.202;2022-09-09T15:02:09;24.60;37.00
17208;DHT22;8720;48.488;9.202;2022-09-09T15:04:43;24.60;36.70
17208;DHT22;8720;48.488;9.202;2022-09-09T15:07:11;24.60;36.40
17208;DHT22;8720;48.488;9.202;2022-09-09T15:09:38;24.60;37.30
17208;DHT22;8720;48.488;9.202;2022-09-09T15:12:06;24.50;36.20
17208;DHT22;8720;48.488;9.202;2022-09-09T15:14:33;24.50;36.20
17208;DHT22;8720;48.488;9.202;2022-09-09T15:17:00;24.50;36.20
17208;DHT22;8720;48.488;9.202;2022-09-09T15:19:28;24.40;36.10
17208;DHT22;8720;48.488;9.202;2022-09-09T15:21:56;24.40;36.50
17208;DHT22;8720;48.488;9.202;2022-09-09T15:24:25;24.30;37.20
17208;DHT22;8720;48.488;9.202;2022-09-09T15:26:52;24.30;38.30
17208;DHT22;8720;48.488;9.202;2022-09-09T15:29:20;24.30;38.00
17208;DHT22;8720;48.488;9.202;2022-09-09T15:31:47;24.30;37.70
17208;DHT22;8720;48.488;9.202;2022-09-09T15:34:14;24.30;37.30
17208;DHT22;8720;48.488;9.202;2022-09-09T15:36:43;24.30;37.20
17208;DHT22;8720;48.488;9.202;2022-09-09T15:39:14;24.20;37.10
17208;DHT22;8720;48.488;9.202;2022-09-09T15:41:43;24.20;37.10
17208;DHT22;8720;48.488;9.202;2022-09-09T15:44:11;24.10;37.10
17208;DHT22;8720;48.488;9.202;2022-09-09T15:46:40;24.10;37.20
17208;DHT22;8720;48.488;9.202;2022-09-09T15:49:10;24.10;36.90
17208;DHT22;8720;48.488;9.202;2022-09-09T15:51:40;24.10;36.50
17208;DHT22;8720;48.488;9.202;2022-09-09T15:54:10;24.10;36.20
17208;DHT22;8720;48.488;9.202;2022-09-09T15:56:40;24.10;36.00
17208;DHT22;8720;48.488;9.202;2022-09-09T15:59:08;24.00;35.50
17208;DHT22;8720;48.488;9.202;2022-09-09T16:01:37;24.00;35.60
17208;DHT22;8720;48.488;9.202;2022-09-09T16:04:05;23.90;35.40
17208;DHT22;8720;48.488;9.202;2022-09-09T16:06:33;23.90;35.40
17208;DHT22;8720;48.488;9.202;2022-09-09T16:09:03;23.90;35.30
17208;DHT22;8720;48.488;9.202;2022-09-09T16:11:33;23.90;35.30
17208;DHT22;8720;48.488;9.202;2022-09-09T16:14:04;23.80;35.50
17208;DHT22;8720;48.488;9.202;2022-09-09T16:16:32;23.80;35.50
17208;DHT22;8720;48.488;9.202;2022-09-09T16:19:04;23.70;35.60
17208;DHT22;8720;48.488;9.202;2022-09-09T16:21:34;23.70;35.50
17208;DHT22;8720;48.488;9.202;2022-09-09T16:24:04;23.70;35.70
17208;DHT22;8720;48.488;9.202;2022-09-09T16:26:34;23.70;35.80
17208;DHT22;8720;48.488;9.202;2022-09-09T16:29:04;23.70;35.90
17208;DHT22;8720;48.488;9.202;2022-09-09T16:31:32;23.60;35.90
17208;DHT22;8720;48.488;9.202;2022-09-09T16:34:00;23.60;36.00
17208;DHT22;8720;48.488;9.202;2022-09-09T16:36:30;23.60;36.10
17208;DHT22;8720;48.488;9.202;2022-09-09T16:39:02;23.50;36.20
17208;DHT22;8720;48.488;9.202;2022-09-09T16:41:32;23.50;36.20
17208;DHT22;8720;48.488;9.202;2022-09-09T16:44:02;23.50;36.60